Time;durP1;ratioP1;P1;durP2;ratioP2;P2;SDS_P1;SDS_P2;PMS_P1;PMS_P2;Temp;Humidity;BMP_temperature;BMP_pressure;BME280_temperature;BME280_humidity;BME280_pressure;Samples;Min_cycle;Max_cycle;Signal;HPM_P1;HPM_P2
2023/02/22 00:00:21;;;;;;;2.70;2.50;;;;;;;;;;105324;1261;62754;-68
2023/02/22 00:02:52;;;;;;;2.60;2.40;;;;;;;;;;105219;1253;62836;-68
2023/02/22 00:05:19;;;;;;;3.00;2.80;;;;;;;;;;105197;1261;62843;-68
2023/02/22 00:07:49;;;;;;;3.30;3.00;;;;;;;;;;105303;1249;62984;-68
2023/02/22 00:10:19;;;;;;;2.60;2.20;;;;;;;;;;105310;1253;62719;-67
2023/02/22 00:12:47;;;;;;;3.40;3.10;;;;;;;;;;105209;1261;62852;-63
2023/02/22 00:15:18;;;;;;;2.50;2.30;;;;;;;;;;105282;1253;62843;-69
2023/02/22 00:17:46;;;;;;;3.40;2.90;;;;;;;;;;105194;1251;62933;-69
2023/02/22 00:20:14;;;;;;;3.00;2.70;;;;;;;;;;105225;1260;63333;-68
2023/02/22 00:22:42;;;;;;;3.00;2.80;;;;;;;;;;105244;1249;62738;-69
2023/02/22 00:25:09;;;;;;;3.10;2.90;;;;;;;;;;106725;1247;62879;-68
2023/02/22 00:27:36;;;;;;;2.70;2.50;;;;;;;;;;109039;1247;60953;-69
2023/02/22 00:30:04;;;;;;;3.20;2.90;;;;;;;;;;108197;1247;62651;-69
2023/02/22 00:32:31;;;;;;;3.20;2.90;;;;;;;;;;106779;1253;62834;-68
2023/02/22 00:34:58;;;;;;;3.50;3.10;;;;;;;;;;105193;1254;62865;-68
2023/02/22 00:37:25;;;;;;;3.30;2.90;;;;;;;;;;105304;1251;62824;-68
2023/02/22 00:39:52;;;;;;;2.60;2.40;;;;;;;;;;105230;1253;62824;-68
2023/02/22 00:42:19;;;;;;;3.40;3.10;;;;;;;;;;105194;1271;62725;-70
2023/02/22 00:44:47;;;;;;;4.00;3.20;;;;;;;;;;105319;1253;62725;-69
2023/02/22 00:47:13;;;;;;;3.30;3.00;;;;;;;;;;105177;1251;62446;-67
2023/02/22 00:49:41;;;;;;;2.70;2.50;;;;;;;;;;105281;1264;61884;-67
2023/02/22 00:52:08;;;;;;;2.90;2.70;;;;;;;;;;105148;1253;62840;-67
2023/02/22 00:54:35;;;;;;;3.30;3.00;;;;;;;;;;105261;1254;63195;-69
2023/02/22 00:57:02;;;;;;;2.30;2.10;;;;;;;;;;105229;1254;62783;-69
2023/02/22 00:59:33;;;;;;;2.60;2.20;;;;;;;;;;105187;1271;62735;-68
2023/02/22 01:02:00;;;;;;;2.20;2.10;;;;;;;;;;105249;1257;63186;-68
2023/02/22 01:04:28;;;;;;;;;;;;;;;;;;105225;1269;62758;-68
2023/02/22 01:06:55;;;;;;;2.40;2.10;;;;;;;;;;105290;1263;62824;-68
2023/02/22 01:09:26;;;;;;;2.60;2.40;;;;;;;;;;105368;1261;62739;-69
2023/02/22 01:11:56;;;;;;;2.00;1.80;;;;;;;;;;105318;1253;62927;-69
2023/02/22 01:14:25;;;;;;;2.30;2.10;;;;;;;;;;105226;1254;63102;-63
2023/02/22 01:16:53;;;;;;;2.40;2.00;;;;;;;;;;105317;1254;63265;-66
2023/02/22 01:19:23;;;;;;;2.10;2.00;;;;;;;;;;105303;1263;62760;-65
2023/02/22 01:21:50;;;;;;;2.50;2.20;;;;;;;;;;105237;1253;62776;-66
2023/02/22 01:24:17;;;;;;;2.80;2.40;;;;;;;;;;105326;1251;62855;-66
2023/02/22 01:26:48;;;;;;;3.20;2.30;;;;;;;;;;105364;1253;62842;-66
2023/02/22 01:29:15;;;;;;;2.90;2.60;;;;;;;;;;105320;1250;62843;-66
2023/02/22 01:31:42;;;;;;;2.50;2.30;;;;;;;;;;105369;1251;62834;-68
2023/02/22 01:34:11;;;;;;;2.60;2.00;;;;;;;;;;105237;1257;62706;-65
2023/02/22 01:36:41;;;;;;;2.10;1.90;;;;;;;;;;105380;1253;62833;-66
2023/02/22 01:39:11;;;;;;;2.40;2.20;;;;;;;;;;105269;1253;62852;-65
2023/02/22 01:41:38;;;;;;;2.80;2.50;;;;;;;;;;105143;1248;63048;-65
2023/02/22 01:44:16;;;;;;;2.50;2.30;;;;;;;;;;105243;1267;62846;-65
2023/02/22 01:46:43;;;;;;;;;;;;;;;;;;105315;1271;62741;-66
2023/02/22 01:49:09;;;;;;;2.60;2.40;;;;;;;;;;105382;1252;62797;-65
2023/02/22 01:53:47;;;;;;;2.80;2.40;;;;;;;;;;101797;1287;605175;-64
2023/02/22 01:56:14;;;;;;;2.60;2.40;;;;;;;;;;104504;1278;61181;-64
2023/02/22 01:58:42;;;;;;;2.60;2.40;;;;;;;;;;104589;1255;62848;-64
2023/02/22 02:01:09;;;;;;;2.40;2.20;;;;;;;;;;104466;1273;61283;-64
2023/02/22 02:03:36;;;;;;;3.10;2.60;;;;;;;;;;104399;1267;61414;-65
2023/02/22 02:06:04;;;;;;;2.40;2.20;;;;;;;;;;104555;1257;180444;-65
2023/02/22 02:08:36;;;;;;;2.70;2.50;;;;;;;;;;104756;1256;61067;-65
2023/02/22 02:11:06;;;;;;;2.70;2.40;;;;;;;;;;104680;1254;61102;-66
2023/02/22 02:13:35;;;;;;;3.10;2.70;;;;;;;;;;104791;1254;61340;-66
2023/02/22 02:16:03;;;;;;;2.80;2.60;;;;;;;;;;104692;1254;61298;-66
2023/02/22 02:18:31;;;;;;;3.00;2.80;;;;;;;;;;104623;1270;62015;-68
2023/02/22 02:21:06;;;;;;;4.50;2.90;;;;;;;;;;104488;1253;61992;-67
2023/02/22 02:23:39;;;;;;;2.80;2.50;;;;;;;;;;104792;1255;61896;-66
2023/02/22 02:26:26;;;;;;;3.10;2.80;;;;;;;;;;104696;1257;61346;-62
2023/02/22 02:28:58;;;;;;;2.80;2.50;;;;;;;;;;104571;1255;61971;-68
2023/02/22 02:31:35;;;;;;;2.90;2.50;;;;;;;;;;104784;1260;62891;-66
2023/02/22 02:34:23;;;;;;;2.30;2.10;;;;;;;;;;104628;1260;62002;-66
2023/02/22 02:36:50;;;;;;;2.60;2.30;;;;;;;;;;104525;1253;62335;-67
2023/02/22 02:39:34;;;;;;;3.70;3.00;;;;;;;;;;104585;1275;61349;-66
2023/02/22 02:42:02;;;;;;;3.20;2.50;;;;;;;;;;104519;1253;61991;-66
2023/02/22 02:44:35;;;;;;;2.50;2.30;;;;;;;;;;105415;1248;61985;-67
2023/02/22 02:47:03;;;;;;;2.80;2.60;;;;;;;;;;105348;1256;61493;-67
2023/02/22 02:49:35;;;;;;;2.40;2.10;;;;;;;;;;104808;1266;61935;-67
2023/02/22 02:52:02;;;;;;;3.60;2.30;;;;;;;;;;104804;1257;61411;-67
2023/02/22 02:54:29;;;;;;;2.90;2.30;;;;;;;;;;105153;1266;61308;-68
2023/02/22 02:56:56;;;;;;;2.20;1.90;;;;;;;;;;105316;1253;62216;-67
2023/02/22 02:59:31;;;;;;;3.00;2.50;;;;;;;;;;105245;1252;61890;-67
2023/02/22 03:02:01;;;;;;;3.50;2.50;;;;;;;;;;105397;1250;62332;-63
2023/02/22 03:04:37;;;;;;;2.00;1.90;;;;;;;;;;105339;1253;61361;-65
2023/02/22 03:07:19;;;;;;;3.00;2.20;;;;;;;;;;105317;1253;62251;-64
2023/02/22 03:09:53;;;;;;;2.50;2.00;;;;;;;;;;105320;1248;61999;-68
2023/02/22 03:12:26;;;;;;;2.30;2.00;;;;;;;;;;105206;1249;62015;-67
2023/02/22 03:15:00;;;;;;;2.30;2.10;;;;;;;;;;104825;1250;61908;-66
2023/02/22 03:17:29;;;;;;;2.10;1.90;;;;;;;;;;105215;1251;62092;-66
2023/02/22 03:19:57;;;;;;;2.10;1.90;;;;;;;;;;104835;1269;61301;-68
2023/02/22 03:22:33;;;;;;;3.10;2.80;;;;;;;;;;105212;1266;61996;-67
2023/02/22 03:25:05;;;;;;;1.60;1.50;;;;;;;;;;105319;1251;62005;-67
2023/02/22 03:27:42;;;;;;;2.30;1.80;;;;;;;;;;108477;1248;61890;-68
2023/02/22 03:30:11;;;;;;;2.00;1.60;;;;;;;;;;105545;1253;61982;-63
2023/02/22 03:32:40;;;;;;;2.30;2.10;;;;;;;;;;105271;1249;62229;-66
2023/02/22 03:35:11;;;;;;;2.10;1.90;;;;;;;;;;104920;1254;62008;-67
2023/02/22 03:37:39;;;;;;;2.10;1.90;;;;;;;;;;105193;1256;62044;-66
2023/02/22 03:40:12;;;;;;;2.20;2.00;;;;;;;;;;105089;1260;61979;-66
2023/02/22 03:42:44;;;;;;;2.40;1.90;;;;;;;;;;104764;1263;62355;-66
2023/02/22 03:45:12;;;;;;;2.10;1.90;;;;;;;;;;105162;1253;62018;-66
2023/02/22 03:47:39;;;;;;;;;;;;;;;;;;104613;1253;62448;-65
2023/02/22 03:50:08;;;;;;;2.00;1.80;;;;;;;;;;105043;1268;61993;-64
2023/02/22 03:52:37;;;;;;;2.10;1.90;;;;;;;;;;105127;1261;62207;-66
2023/02/22 03:55:09;;;;;;;2.00;1.90;;;;;;;;;;104847;1249;62038;-66
2023/02/22 03:57:38;;;;;;;2.00;1.80;;;;;;;;;;104896;1250;61428;-66
2023/02/22 04:00:06;;;;;;;2.40;2.00;;;;;;;;;;104926;1263;62083;-66
2023/02/22 04:02:39;;;;;;;4.00;2.00;;;;;;;;;;105163;1251;62004;-67
2023/02/22 04:05:06;;;;;;;2.00;1.80;;;;;;;;;;104753;1257;61948;-66
2023/02/22 04:07:33;;;;;;;1.90;1.80;;;;;;;;;;104684;1254;62038;-66
2023/02/22 04:10:07;;;;;;;3.30;2.10;;;;;;;;;;104777;1255;62362;-66
2023/02/22 04:12:35;;;;;;;2.40;2.20;;;;;;;;;;105247;1260;61998;-66
2023/02/22 04:15:07;;;;;;;2.30;2.00;;;;;;;;;;105150;1249;61993;-65
2023/02/22 04:17:34;;;;;;;2.30;1.90;;;;;;;;;;105297;1253;61973;-66
2023/02/22 04:20:02;;;;;;;3.10;1.90;;;;;;;;;;105275;1248;61434;-66
2023/02/22 04:22:39;;;;;;;2.80;2.30;;;;;;;;;;104777;1256;62093;-67
2023/02/22 04:25:06;;;;;;;3.10;2.40;;;;;;;;;;105284;1253;61907;-66
2023/02/22 04:27:33;;;;;;;3.40;2.60;;;;;;;;;;105202;1250;61982;-64
2023/02/22 04:30:00;;;;;;;2.60;2.40;;;;;;;;;;104817;1256;61980;-63
2023/02/22 04:32:30;;;;;;;2.50;2.20;;;;;;;;;;104883;1250;61996;-63
2023/02/22 04:34:58;;;;;;;2.50;2.30;;;;;;;;;;105293;1264;61379;-67
2023/02/22 04:37:33;;;;;;;2.40;2.00;;;;;;;;;;104783;1256;62002;-69
2023/02/22 04:40:06;;;;;;;2.60;2.40;;;;;;;;;;104830;1249;62044;-69
2023/02/22 04:42:34;;;;;;;2.20;2.00;;;;;;;;;;105209;1252;61906;-70
2023/02/22 04:45:01;;;;;;;;;;;;;;;;;;105268;1253;61887;-69
2023/02/22 04:47:28;;;;;;;2.20;1.60;;;;;;;;;;104841;1254;61891;-68
2023/02/22 04:49:56;;;;;;;2.60;2.40;;;;;;;;;;105186;1254;61910;-64
2023/02/22 04:52:23;;;;;;;2.80;2.50;;;;;;;;;;105268;1268;62079;-64
2023/02/22 04:54:50;;;;;;;3.10;2.80;;;;;;;;;;104918;1254;61918;-65
2023/02/22 04:57:17;;;;;;;3.40;2.90;;;;;;;;;;105290;1253;62002;-64
2023/02/22 04:59:46;;;;;;;4.30;2.80;;;;;;;;;;105252;1252;62014;-64
2023/02/22 05:02:13;;;;;;;4.40;2.70;;;;;;;;;;105188;1253;62008;-64
2023/02/22 05:04:40;;;;;;;3.80;3.00;;;;;;;;;;104825;1266;62061;-62
2023/02/22 05:07:07;;;;;;;3.60;3.30;;;;;;;;;;105699;1250;62133;-62
2023/02/22 05:09:34;;;;;;;5.10;3.50;;;;;;;;;;105296;1256;61363;-62
2023/02/22 05:12:01;;;;;;;4.00;3.20;;;;;;;;;;105209;1260;61365;-61
2023/02/22 05:14:28;;;;;;;3.10;2.70;;;;;;;;;;105249;1251;61999;-61
2023/02/22 05:17:00;;;;;;;3.40;3.00;;;;;;;;;;105235;1266;62326;-61
2023/02/22 05:19:27;;;;;;;3.50;3.20;;;;;;;;;;105179;1251;62017;-62
2023/02/22 05:21:55;;;;;;;3.70;3.10;;;;;;;;;;105170;1264;62028;-62
2023/02/22 05:24:22;;;;;;;;;;;;;;;;;;105293;1257;62321;-61
2023/02/22 05:26:50;;;;;;;3.50;3.20;;;;;;;;;;105349;1253;61985;-61
2023/02/22 05:29:17;;;;;;;5.80;3.10;;;;;;;;;;105372;1264;61916;-62
2023/02/22 05:31:45;;;;;;;3.30;3.00;;;;;;;;;;105193;1253;62329;-60
2023/02/22 05:34:13;;;;;;;4.00;3.60;;;;;;;;;;105239;1260;61978;-62
2023/02/22 05:36:40;;;;;;;3.60;3.30;;;;;;;;;;105597;1251;61947;-61
2023/02/22 05:39:06;;;;;;;3.80;3.30;;;;;;;;;;105310;1264;61887;-60
2023/02/22 05:41:34;;;;;;;3.80;3.40;;;;;;;;;;105417;1252;62047;-61
2023/02/22 05:44:01;;;;;;;5.20;3.80;;;;;;;;;;105366;1256;61986;-61
2023/02/22 05:46:28;;;;;;;5.80;4.20;;;;;;;;;;105289;1253;61990;-60
2023/02/22 05:48:55;;;;;;;3.70;3.30;;;;;;;;;;105403;1251;62005;-61
2023/02/22 05:51:22;;;;;;;3.80;3.40;;;;;;;;;;101119;1253;2727215;-59
2023/02/22 05:53:50;;;;;;;3.90;3.40;;;;;;;;;;105381;1253;66364;-61
2023/02/22 05:56:24;;;;;;;3.60;3.30;;;;;;;;;;105323;1249;64389;-61
2023/02/22 05:58:52;;;;;;;4.00;3.50;;;;;;;;;;105392;1248;63096;-61
2023/02/22 06:01:19;;;;;;;4.20;3.80;;;;;;;;;;105438;1253;63039;-61
2023/02/22 06:03:47;;;;;;;3.90;3.30;;;;;;;;;;105255;1264;63960;-60
2023/02/22 06:06:14;;;;;;;4.90;3.70;;;;;;;;;;105461;1248;63311;-60
2023/02/22 06:08:41;;;;;;;6.00;4.50;;;;;;;;;;105339;1251;62863;-60
2023/02/22 06:11:08;;;;;;;5.10;4.60;;;;;;;;;;105813;1248;63908;-61
2023/02/22 06:13:36;;;;;;;4.90;4.20;;;;;;;;;;108973;1248;62478;-63
2023/02/22 06:16:03;;;;;;;5.20;3.90;;;;;;;;;;107167;1252;62849;-61
2023/02/22 06:18:31;;;;;;;;;;;;;;;;;;105809;1253;63187;-63
2023/02/22 06:20:58;;;;;;;5.40;4.20;;;;;;;;;;105446;1251;62936;-61
2023/02/22 06:23:25;;;;;;;5.00;4.00;;;;;;;;;;105311;1253;62837;-64
2023/02/22 06:25:52;;;;;;;5.20;4.30;;;;;;;;;;105163;1249;62847;-64
2023/02/22 06:28:19;;;;;;;5.50;4.40;;;;;;;;;;105217;1253;62821;-62
2023/02/22 06:30:45;;;;;;;4.60;3.50;;;;;;;;;;105174;1253;62724;-62
2023/02/22 06:33:12;;;;;;;4.20;3.80;;;;;;;;;;105201;1252;62745;-63
2023/02/22 06:35:39;;;;;;;5.50;4.10;;;;;;;;;;105159;1253;62901;-62
2023/02/22 06:38:07;;;;;;;5.10;4.60;;;;;;;;;;105192;1253;62737;-60
2023/02/22 06:40:34;;;;;;;5.30;4.60;;;;;;;;;;105436;1253;62841;-62
2023/02/22 06:43:01;;;;;;;6.30;4.60;;;;;;;;;;105288;1250;62782;-62
2023/02/22 06:45:28;;;;;;;8.30;4.30;;;;;;;;;;105372;1250;62446;-62
2023/02/22 06:47:55;;;;;;;5.20;4.60;;;;;;;;;;105160;1253;62933;-61
2023/02/22 06:50:23;;;;;;;4.40;3.90;;;;;;;;;;105167;1264;62720;-63
2023/02/22 06:52:50;;;;;;;4.40;4.00;;;;;;;;;;105336;1253;62887;-64
2023/02/22 06:55:18;;;;;;;4.50;3.80;;;;;;;;;;105741;1253;62747;-60
2023/02/22 06:57:45;;;;;;;;;;;;;;;;;;105288;1269;62266;-60
2023/02/22 07:00:17;;;;;;;4.50;4.00;;;;;;;;;;105290;1262;62872;-60
2023/02/22 07:02:44;;;;;;;6.30;4.60;;;;;;;;;;105300;1253;62945;-60
2023/02/22 07:05:11;;;;;;;6.20;4.40;;;;;;;;;;105166;1253;62856;-60
2023/02/22 07:07:41;;;;;;;5.20;4.30;;;;;;;;;;105015;1251;62700;-60
2023/02/22 07:10:14;;;;;;;6.70;4.80;;;;;;;;;;105106;1252;63355;-60
2023/02/22 07:12:41;;;;;;;5.60;4.90;;;;;;;;;;104878;1250;62818;-64
2023/02/22 07:15:07;;;;;;;6.60;4.60;;;;;;;;;;105151;1250;63279;-60
2023/02/22 07:17:35;;;;;;;5.80;5.00;;;;;;;;;;105234;1260;63393;-60
2023/02/22 07:20:02;;;;;;;5.80;4.60;;;;;;;;;;105393;1267;62706;-61
2023/02/22 07:22:30;;;;;;;5.80;5.20;;;;;;;;;;105284;1253;62860;-60
2023/02/22 07:24:57;;;;;;;5.20;4.60;;;;;;;;;;105241;1264;62161;-60
2023/02/22 07:27:23;;;;;;;5.10;4.60;;;;;;;;;;105204;1249;62842;-60
2023/02/22 07:29:50;;;;;;;6.40;5.20;;;;;;;;;;105172;1264;62757;-60
2023/02/22 07:32:17;;;;;;;5.50;4.80;;;;;;;;;;105293;1259;62744;-60
2023/02/22 07:34:45;;;;;;;5.60;4.70;;;;;;;;;;105289;1252;62921;-62
2023/02/22 07:37:12;;;;;;;6.90;4.90;;;;;;;;;;104933;1272;304686;-59
2023/02/22 07:39:42;;;;;;;7.00;5.40;;;;;;;;;;105222;1253;62843;-59
2023/02/22 07:42:09;;;;;;;7.90;5.40;;;;;;;;;;105236;1272;62741;-59
2023/02/22 07:44:36;;;;;;;6.20;5.20;;;;;;;;;;105218;1252;62850;-60
2023/02/22 07:47:03;;;;;;;5.30;4.70;;;;;;;;;;105210;1257;63434;-59
2023/02/22 07:49:30;;;;;;;5.30;4.70;;;;;;;;;;105291;1251;62849;-59
2023/02/22 07:51:57;;;;;;;6.10;5.20;;;;;;;;;;105177;1267;62751;-60
2023/02/22 07:54:23;;;;;;;5.90;4.80;;;;;;;;;;105350;1249;62852;-65
2023/02/22 07:56:50;;;;;;;4.60;3.90;;;;;;;;;;105167;1253;62840;-64
2023/02/22 07:59:17;;;;;;;5.30;4.60;;;;;;;;;;105185;1253;62937;-65
2023/02/22 08:01:44;;;;;;;6.00;4.90;;;;;;;;;;105173;1270;62158;-65
2023/02/22 08:04:11;;;;;;;5.50;4.80;;;;;;;;;;105046;1260;62776;-65
2023/02/22 08:06:39;;;;;;;5.80;4.80;;;;;;;;;;104785;1257;62716;-68
2023/02/22 08:09:06;;;;;;;5.30;4.80;;;;;;;;;;105192;1249;62857;-70
2023/02/22 08:11:33;;;;;;;5.50;4.60;;;;;;;;;;105461;1253;62861;-66
2023/02/22 08:14:00;;;;;;;5.90;4.90;;;;;;;;;;105441;1253;62280;-67
2023/02/22 08:16:27;;;;;;;6.00;5.20;;;;;;;;;;105480;1250;62857;-69
2023/02/22 08:18:55;;;;;;;5.60;5.00;;;;;;;;;;104931;1272;62855;-68
2023/02/22 08:21:23;;;;;;;7.30;5.00;;;;;;;;;;105021;1267;62729;-67
2023/02/22 08:23:50;;;;;;;5.80;4.80;;;;;;;;;;105070;1253;62824;-67
2023/02/22 08:26:19;;;;;;;5.00;4.50;;;;;;;;;;105074;1253;62920;-67
2023/02/22 08:28:47;;;;;;;3.90;3.60;;;;;;;;;;105226;1252;62840;-62
2023/02/22 08:31:14;;;;;;;5.90;4.50;;;;;;;;;;105285;1251;62722;-62
2023/02/22 08:33:45;;;;;;;5.20;4.30;;;;;;;;;;104899;1253;62828;-61
2023/02/22 08:36:12;;;;;;;5.10;4.30;;;;;;;;;;105027;1255;62862;-60
2023/02/22 08:38:39;;;;;;;5.40;4.20;;;;;;;;;;105085;1260;61981;-60
2023/02/22 08:41:06;;;;;;;5.90;4.70;;;;;;;;;;104853;1269;63284;-60
2023/02/22 08:43:33;;;;;;;5.60;4.70;;;;;;;;;;105261;1253;62865;-61
2023/02/22 08:46:00;;;;;;;5.10;4.60;;;;;;;;;;104949;1252;62853;-59
2023/02/22 08:48:27;;;;;;;5.20;4.70;;;;;;;;;;104929;1249;62865;-60
2023/02/22 08:50:54;;;;;;;5.00;4.50;;;;;;;;;;105126;1248;62828;-60
2023/02/22 08:53:21;;;;;;;5.50;4.30;;;;;;;;;;105070;1251;62758;-61
2023/02/22 08:55:48;;;;;;;4.60;4.10;;;;;;;;;;105216;1254;62828;-62
2023/02/22 08:58:15;;;;;;;4.00;3.60;;;;;;;;;;105126;1250;62779;-62
2023/02/22 09:00:43;;;;;;;4.00;3.70;;;;;;;;;;105016;1251;62843;-66
2023/02/22 09:03:12;;;;;;;5.20;3.90;;;;;;;;;;105603;1253;62241;-61
2023/02/22 09:05:39;;;;;;;6.70;4.30;;;;;;;;;;105078;1263;62760;-61
2023/02/22 09:08:06;;;;;;;5.50;4.10;;;;;;;;;;105230;1253;62885;-63
2023/02/22 09:10:33;;;;;;;5.60;4.30;;;;;;;;;;105022;1253;62773;-64
2023/02/22 09:13:03;;;;;;;4.40;4.00;;;;;;;;;;105161;1250;62815;-63
2023/02/22 09:15:31;;;;;;;5.60;5.10;;;;;;;;;;104873;1256;62794;-63
2023/02/22 09:17:58;;;;;;;7.40;4.80;;;;;;;;;;105154;1253;62805;-63
2023/02/22 09:20:24;;;;;;;5.60;4.60;;;;;;;;;;105013;1261;62787;-63
2023/02/22 09:22:52;;;;;;;6.10;5.20;;;;;;;;;;105047;1253;62728;-62
2023/02/22 09:25:19;;;;;;;6.90;5.20;;;;;;;;;;104938;1269;62828;-62
2023/02/22 09:27:47;;;;;;;6.40;5.30;;;;;;;;;;106187;1254;62751;-62
2023/02/22 09:30:18;;;;;;;5.60;4.70;;;;;;;;;;108960;1250;60907;-62
2023/02/22 09:32:45;;;;;;;4.90;4.30;;;;;;;;;;107131;1253;62976;-62
2023/02/22 09:35:12;;;;;;;5.80;4.90;;;;;;;;;;105109;1266;63163;-60
2023/02/22 09:37:42;;;;;;;5.50;4.30;;;;;;;;;;105360;1251;62737;-59
2023/02/22 09:40:16;;;;;;;5.20;4.60;;;;;;;;;;105288;1253;62743;-59
2023/02/22 09:42:44;;;;;;;7.20;5.20;;;;;;;;;;105095;1249;62817;-59
2023/02/22 09:45:26;;;;;;;6.60;5.40;;;;;;;;;;104851;1250;62853;-61
2023/02/22 09:47:56;;;;;;;7.00;5.60;;;;;;;;;;104897;1252;62742;-60
2023/02/22 09:50:35;;;;;;;6.40;5.20;;;;;;;;;;105070;1254;62751;-60
2023/02/22 09:53:06;;;;;;;5.40;4.90;;;;;;;;;;104954;1257;63416;-60
2023/02/22 09:55:41;;;;;;;6.00;5.40;;;;;;;;;;105121;1250;62863;-68
2023/02/22 09:58:15;;;;;;;5.90;5.20;;;;;;;;;;105241;1250;62892;-70
2023/02/22 10:00:42;;;;;;;4.70;4.20;;;;;;;;;;105316;1263;62664;-71
2023/02/22 10:03:10;;;;;;;5.60;4.60;;;;;;;;;;104765;1269;62405;-69
2023/02/22 10:05:41;;;;;;;4.90;4.40;;;;;;;;;;105393;1251;62838;-74
2023/02/22 10:08:11;;;;;;;6.20;4.80;;;;;;;;;;105123;1266;62741;-68
2023/02/22 10:10:44;;;;;;;4.70;4.10;;;;;;;;;;105041;1253;62936;-70
2023/02/22 10:13:22;;;;;;;5.50;4.50;;;;;;;;;;105028;1250;62764;-70
2023/02/22 10:15:57;;;;;;;5.20;4.60;;;;;;;;;;105051;1251;63167;-66
2023/02/22 10:18:27;;;;;;;6.40;4.70;;;;;;;;;;105031;1272;62110;-67
2023/02/22 10:21:13;;;;;;;6.60;4.90;;;;;;;;;;105155;1253;62945;-69
2023/02/22 10:23:54;;;;;;;7.40;5.60;;;;;;;;;;105148;1251;62719;-71
2023/02/22 10:26:21;;;;;;;6.00;4.90;;;;;;;;;;105408;1252;62751;-70
2023/02/22 10:28:49;;;;;;;;;;;;;;;;;;105176;1251;63182;-69
2023/02/22 10:31:19;;;;;;;7.90;4.70;;;;;;;;;;105278;1254;62827;-70
2023/02/22 10:33:46;;;;;;;5.00;4.20;;;;;;;;;;105914;1251;62748;-71
2023/02/22 10:36:13;;;;;;;;;;;;;;;;;;105580;1252;62881;-71
2023/02/22 10:38:40;;;;;;;4.50;3.90;;;;;;;;;;105320;1255;62827;-70
2023/02/22 10:41:09;;;;;;;4.00;3.40;;;;;;;;;;105039;1260;62838;-71
2023/02/22 10:43:36;;;;;;;4.90;3.90;;;;;;;;;;105134;1249;63282;-70
2023/02/22 10:46:04;;;;;;;4.90;4.00;;;;;;;;;;105047;1263;62824;-71
2023/02/22 10:48:34;;;;;;;6.00;4.00;;;;;;;;;;105120;1251;62719;-73
2023/02/22 10:51:02;;;;;;;4.30;3.40;;;;;;;;;;105087;1251;61982;-71
2023/02/22 10:53:28;;;;;;;;;;;;;;;;;;104992;1263;62832;-73
2023/02/22 10:56:14;;;;;;;4.80;3.90;;;;;;;;;;104968;1251;62747;-72
2023/02/22 10:58:45;;;;;;;4.70;3.90;;;;;;;;;;105257;1253;62831;-70
2023/02/22 11:01:31;;;;;;;4.20;3.70;;;;;;;;;;105235;1261;63507;-72
2023/02/22 11:04:07;;;;;;;5.00;3.70;;;;;;;;;;105628;1252;62746;-70
2023/02/22 11:06:34;;;;;;;4.70;4.20;;;;;;;;;;105448;1253;62852;-72
2023/02/22 11:09:09;;;;;;;4.30;3.70;;;;;;;;;;104997;1250;62837;-72
2023/02/22 11:11:37;;;;;;;5.20;4.20;;;;;;;;;;105067;1253;63422;-72
2023/02/22 11:14:05;;;;;;;4.90;4.00;;;;;;;;;;105488;1252;62840;-73
2023/02/22 11:16:33;;;;;;;4.50;4.10;;;;;;;;;;105291;1253;61381;-67
2023/02/22 11:19:06;;;;;;;4.70;4.20;;;;;;;;;;105065;1253;62823;-70
2023/02/22 11:21:33;;;;;;;5.30;4.30;;;;;;;;;;105053;1263;61715;-70
2023/02/22 11:24:01;;;;;;;5.60;4.60;;;;;;;;;;105251;1263;63264;-71
2023/02/22 11:26:28;;;;;;;4.30;3.90;;;;;;;;;;105435;1267;62717;-69
2023/02/22 11:28:55;;;;;;;5.90;4.20;;;;;;;;;;104797;1260;62204;-70
2023/02/22 11:31:23;;;;;;;4.80;4.30;;;;;;;;;;105361;1259;62139;-69
2023/02/22 11:33:54;;;;;;;4.20;3.80;;;;;;;;;;105625;1253;62853;-68
2023/02/22 11:36:39;;;;;;;4.10;3.70;;;;;;;;;;105131;1270;62828;-61
2023/02/22 11:39:25;;;;;;;6.40;4.60;;;;;;;;;;104991;1266;62716;-60
2023/02/22 11:41:54;;;;;;;4.40;4.00;;;;;;;;;;105280;1253;62722;-61
2023/02/22 11:44:28;;;;;;;5.50;4.10;;;;;;;;;;105055;1253;62840;-61
2023/02/22 11:47:00;;;;;;;5.90;4.40;;;;;;;;;;104985;1257;62764;-61
2023/02/22 11:49:33;;;;;;;5.00;4.50;;;;;;;;;;104791;1257;62840;-61
2023/02/22 11:52:22;;;;;;;6.70;4.70;;;;;;;;;;105136;1255;62847;-61
2023/02/22 11:55:20;;;;;;;5.00;4.30;;;;;;;;;;105163;1252;62831;-63
2023/02/22 11:58:18;;;;;;;6.40;4.50;;;;;;;;;;105068;1261;62917;-63
2023/02/22 12:00:52;;;;;;;5.60;4.70;;;;;;;;;;104653;1251;62397;-64
2023/02/22 12:03:38;;;;;;;6.60;4.70;;;;;;;;;;105459;1262;62766;-63
2023/02/22 12:06:08;;;;;;;6.20;4.00;;;;;;;;;;105053;1251;62731;-63
2023/02/22 12:08:39;;;;;;;5.80;4.70;;;;;;;;;;105134;1253;62854;-63
2023/02/22 12:11:17;;;;;;;6.20;4.60;;;;;;;;;;105203;1251;62844;-63
2023/02/22 12:13:44;;;;;;;7.40;5.00;;;;;;;;;;105167;1251;63130;-67
2023/02/22 12:16:23;;;;;;;5.20;4.10;;;;;;;;;;105309;1257;62827;-66
2023/02/22 12:19:09;;;;;;;4.60;3.80;;;;;;;;;;104699;1255;62891;-63
2023/02/22 12:21:38;;;;;;;5.50;4.60;;;;;;;;;;104958;1260;62801;-65
2023/02/22 12:24:15;;;;;;;5.60;4.50;;;;;;;;;;104903;1270;62977;-64
2023/02/22 12:26:50;;;;;;;5.60;4.20;;;;;;;;;;104918;1253;62835;-64
2023/02/22 12:29:28;;;;;;;4.50;3.80;;;;;;;;;;104911;1254;62812;-64
2023/02/22 12:31:59;;;;;;;4.90;4.00;;;;;;;;;;104941;1255;62750;-64
2023/02/22 12:34:26;;;;;;;4.70;4.00;;;;;;;;;;104919;1254;62825;-65
2023/02/22 12:37:05;;;;;;;6.30;4.30;;;;;;;;;;105137;1250;62780;-66
2023/02/22 12:39:38;;;;;;;4.20;3.80;;;;;;;;;;104915;1251;62836;-64
2023/02/22 12:42:28;;;;;;;4.80;4.10;;;;;;;;;;105059;1256;62820;-65
2023/02/22 12:44:57;;;;;;;4.10;3.70;;;;;;;;;;104915;1269;62860;-62
2023/02/22 12:47:25;;;;;;;5.10;3.90;;;;;;;;;;104921;1271;62751;-66
2023/02/22 12:50:04;;;;;;;4.30;3.60;;;;;;;;;;105397;1249;62846;-64
2023/02/22 12:53:01;;;;;;;3.90;3.50;;;;;;;;;;104922;1263;62774;-63
2023/02/22 12:55:32;;;;;;;4.50;3.50;;;;;;;;;;104819;1253;62844;-63
2023/02/22 12:58:19;;;;;;;4.10;3.30;;;;;;;;;;104625;1267;62837;-64
2023/02/22 13:00:55;;;;;;;3.80;3.30;;;;;;;;;;104769;1271;62825;-65
2023/02/22 13:03:38;;;;;;;4.30;3.20;;;;;;;;;;105028;1255;62852;-63
2023/02/22 13:06:24;;;;;;;3.80;3.30;;;;;;;;;;105044;1253;62841;-67
2023/02/22 13:09:10;;;;;;;4.90;3.80;;;;;;;;;;104951;1254;62860;-63
2023/02/22 13:11:56;;;;;;;3.70;3.30;;;;;;;;;;104802;1251;62834;-66
2023/02/22 13:14:38;;;;;;;4.10;3.10;;;;;;;;;;104880;1263;62875;-66
2023/02/22 13:17:13;;;;;;;4.50;3.80;;;;;;;;;;104963;1253;62811;-65
2023/02/22 13:19:58;;;;;;;4.90;4.00;;;;;;;;;;104892;1254;62834;-64
2023/02/22 13:22:46;;;;;;;4.40;3.70;;;;;;;;;;104935;1250;62859;-64
2023/02/22 13:25:19;;;;;;;4.00;3.50;;;;;;;;;;104997;1262;62750;-63
2023/02/22 13:27:51;;;;;;;4.00;3.40;;;;;;;;;;105244;1259;61862;-65
2023/02/22 13:30:33;;;;;;;6.70;3.50;;;;;;;;;;105160;1254;62786;-64
2023/02/22 13:33:01;;;;;;;3.10;2.80;;;;;;;;;;105406;1253;62745;-64
2023/02/22 13:35:28;;;;;;;3.20;2.80;;;;;;;;;;105112;1251;62840;-64
2023/02/22 13:37:56;;;;;;;3.90;3.40;;;;;;;;;;105098;1253;62844;-64
2023/02/22 13:40:28;;;;;;;4.30;3.10;;;;;;;;;;104907;1251;62726;-65
2023/02/22 13:43:04;;;;;;;3.30;2.90;;;;;;;;;;105002;1253;62869;-65
2023/02/22 13:45:35;;;;;;;3.90;2.70;;;;;;;;;;104962;1263;62929;-63
2023/02/22 13:48:20;;;;;;;3.10;2.80;;;;;;;;;;105117;1271;62859;-63
2023/02/22 13:50:48;;;;;;;4.30;3.30;;;;;;;;;;105026;1252;62779;-64
2023/02/22 13:53:17;;;;;;;4.00;3.30;;;;;;;;;;104980;1253;62828;-62
2023/02/22 13:55:45;;;;;;;3.30;3.00;;;;;;;;;;104714;1249;62841;-61
2023/02/22 13:58:12;;;;;;;4.10;3.20;;;;;;;;;;105117;1261;62435;-62
2023/02/22 14:00:58;;;;;;;4.30;3.90;;;;;;;;;;104757;1255;63331;-62
2023/02/22 14:03:41;;;;;;;4.20;3.20;;;;;;;;;;104993;1267;62930;-62
2023/02/22 14:06:30;;;;;;;4.00;3.60;;;;;;;;;;104968;1267;278551;-63
2023/02/22 14:09:44;;;;;;;3.80;3.40;;;;;;;;;;101885;1305;600868;-64
2023/02/22 14:12:27;;;;;;;5.80;3.70;;;;;;;;;;104150;1263;60272;-63
2023/02/22 14:15:14;;;;;;;4.30;3.50;;;;;;;;;;104395;1262;61615;-64
2023/02/22 14:17:55;;;;;;;4.40;3.50;;;;;;;;;;105072;1251;60243;-68
2023/02/22 14:20:29;;;;;;;4.00;3.40;;;;;;;;;;105065;1251;60194;-66
2023/02/22 14:23:17;;;;;;;3.70;3.10;;;;;;;;;;104942;1247;300602;-77
2023/02/22 14:25:45;;;;;;;3.90;3.40;;;;;;;;;;105250;1247;60260;-72
2023/02/22 14:28:35;;;;;;;4.30;3.80;;;;;;;;;;105425;1251;60738;-69
2023/02/22 14:31:11;;;;;;;5.50;3.90;;;;;;;;;;105449;1263;60185;-72
2023/02/22 14:33:49;;;;;;;4.40;3.80;;;;;;;;;;105331;1251;60181;-72
2023/02/22 14:36:35;;;;;;;4.80;3.90;;;;;;;;;;105272;1247;60985;-72
2023/02/22 14:39:13;;;;;;;4.10;3.40;;;;;;;;;;105216;1252;60863;-70
2023/02/22 14:41:44;;;;;;;4.50;3.60;;;;;;;;;;105392;1249;61339;-71
2023/02/22 14:44:12;;;;;;;4.50;3.20;;;;;;;;;;105360;1266;60769;-70
2023/02/22 14:46:41;;;;;;;3.80;3.30;;;;;;;;;;105381;1264;60879;-75
2023/02/22 14:49:10;;;;;;;3.60;3.30;;;;;;;;;;105261;1253;60865;-72
2023/02/22 14:51:40;;;;;;;5.40;3.80;;;;;;;;;;105232;1251;60947;-72
2023/02/22 14:54:14;;;;;;;3.80;3.30;;;;;;;;;;105370;1251;60857;-70
2023/02/22 14:56:47;;;;;;;3.80;3.50;;;;;;;;;;105421;1251;60895;-72